sensor_id;sensor_type;location;lat;lon;timestamp;temperature;humidity
24772;DHT22;12870;52.274;9.754;2022-07-29T00:00:40;17.40;99.90
24772;DHT22;12870;52.274;9.754;2022-07-29T00:03:06;17.40;99.90
24772;DHT22;12870;52.274;9.754;2022-07-29T00:05:32;17.30;99.90
24772;DHT22;12870;52.274;9.754;2022-07-29T00:07:57;17.30;99.90
24772;DHT22;12870;52.274;9.754;2022-07-29T00:10:23;17.40;99.90
24772;DHT22;12870;52.274;9.754;2022-07-29T00:12:49;17.40;99.90
24772;DHT22;12870;52.274;9.754;2022-07-29T00:15:14;17.40;99.90
24772;DHT22;12870;52.274;9.754;2022-07-29T00:17:40;17.40;99.90
24772;DHT22;12870;52.274;9.754;2022-07-29T00:20:06;17.40;99.90
24772;DHT22;12870;52.274;9.754;2022-07-29T00:22:32;17.40;99.90
24772;DHT22;12870;52.274;9.754;2022-07-29T00:24:58;17.40;99.90
24772;DHT22;12870;52.274;9.754;2022-07-29T00:27:23;17.40;99.90
24772;DHT22;12870;52.274;9.754;2022-07-29T00:29:49;17.40;99.90
24772;DHT22;12870;52.274;9.754;2022-07-29T00:32:15;17.40;99.90
24772;DHT22;12870;52.274;9.754;2022-07-29T00:34:40;17.40;99.90
24772;DHT22;12870;52.274;9.754;2022-07-29T00:37:25;17.40;99.90
24772;DHT22;12870;52.274;9.754;2022-07-29T00:39:50;17.40;99.90
24772;DHT22;12870;52.274;9.754;2022-07-29T00:42:17;17.40;99.90
24772;DHT22;12870;52.274;9.754;2022-07-29T00:44:43;17.30;99.90
24772;DHT22;12870;52.274;9.754;2022-07-29T00:47:10;17.30;99.90
24772;DHT22;12870;52.274;9.754;2022-07-29T00:49:36;17.30;99.90
24772;DHT22;12870;52.274;9.754;2022-07-29T00:52:03;17.20;99.90
24772;DHT22;12870;52.274;9.754;2022-07-29T00:54:29;17.20;99.90
24772;DHT22;12870;52.274;9.754;2022-07-29T00:56:58;17.20;99.90
24772;DHT22;12870;52.274;9.754;2022-07-29T00:59:24;17.10;99.90
24772;DHT22;12870;52.274;9.754;2022-07-29T01:01:50;17.10;99.90
24772;DHT22;12870;52.274;9.754;2022-07-29T01:04:16;17.10;99.90
24772;DHT22;12870;52.274;9.754;2022-07-29T01:06:42;17.00;99.90
24772;DHT22;12870;52.274;9.754;2022-07-29T01:09:08;17.00;99.90
24772;DHT22;12870;52.274;9.754;2022-07-29T01:11:35;17.00;99.90
24772;DHT22;12870;52.274;9.754;2022-07-29T01:14:02;17.00;99.90
24772;DHT22;12870;52.274;9.754;2022-07-29T01:16:43;16.90;99.90
24772;DHT22;12870;52.274;9.754;2022-07-29T01:30:35;16.70;99.90
24772;DHT22;12870;52.274;9.754;2022-07-29T01:33:07;16.60;99.90
24772;DHT22;12870;52.274;9.754;2022-07-29T01:35:44;16.60;99.90
24772;DHT22;12870;52.274;9.754;2022-07-29T01:38:18;16.50;99.90
24772;DHT22;12870;52.274;9.754;2022-07-29T01:41:18;16.50;99.90
24772;DHT22;12870;52.274;9.754;2022-07-29T01:43:53;16.50;99.90
24772;DHT22;12870;52.274;9.754;2022-07-29T01:46:25;16.40;99.90
24772;DHT22;12870;52.274;9.754;2022-07-29T01:49:00;16.40;99.90
24772;DHT22;12870;52.274;9.754;2022-07-29T01:51:35;16.30;99.90
24772;DHT22;12870;52.274;9.754;2022-07-29T01:56:48;16.30;99.90
24772;DHT22;12870;52.274;9.754;2022-07-29T01:59:16;16.30;99.90
24772;DHT22;12870;52.274;9.754;2022-07-29T02:01:44;16.30;99.90
24772;DHT22;12870;52.274;9.754;2022-07-29T02:04:12;16.20;99.90
24772;DHT22;12870;52.274;9.754;2022-07-29T02:06:40;16.20;99.90
24772;DHT22;12870;52.274;9.754;2022-07-29T02:09:08;16.20;99.90
24772;DHT22;12870;52.274;9.754;2022-07-29T02:11:36;16.20;99.90
24772;DHT22;12870;52.274;9.754;2022-07-29T02:14:04;16.20;99.90
24772;DHT22;12870;52.274;9.754;2022-07-29T02:16:31;16.10;99.90
24772;DHT22;12870;52.274;9.754;2022-07-29T02:19:01;16.10;99.90
24772;DHT22;12870;52.274;9.754;2022-07-29T02:21:28;16.10;99.90
24772;DHT22;12870;52.274;9.754;2022-07-29T02:23:56;16.10;99.90
24772;DHT22;12870;52.274;9.754;2022-07-29T02:26:26;16.00;99.90
24772;DHT22;12870;52.274;9.754;2022-07-29T02:28:55;16.10;99.90
24772;DHT22;12870;52.274;9.754;2022-07-29T02:31:24;16.10;99.90
24772;DHT22;12870;52.274;9.754;2022-07-29T02:33:52;16.00;99.90
24772;DHT22;12870;52.274;9.754;2022-07-29T02:36:19;16.10;99.90
24772;DHT22;12870;52.274;9.754;2022-07-29T02:38:46;16.00;99.90
24772;DHT22;12870;52.274;9.754;2022-07-29T02:41:29;16.00;99.90
24772;DHT22;12870;52.274;9.754;2022-07-29T02:43:58;16.00;99.90
24772;DHT22;12870;52.274;9.754;2022-07-29T02:46:31;16.00;99.90
24772;DHT22;12870;52.274;9.754;2022-07-29T02:49:13;16.00;99.90
24772;DHT22;12870;52.274;9.754;2022-07-29T02:51:45;16.00;99.90
24772;DHT22;12870;52.274;9.754;2022-07-29T02:54:26;16.00;99.90
24772;DHT22;12870;52.274;9.754;2022-07-29T02:56:55;16.00;99.90
24772;DHT22;12870;52.274;9.754;2022-07-29T02:59:26;16.00;99.90
24772;DHT22;12870;52.274;9.754;2022-07-29T03:01:54;16.10;99.90
24772;DHT22;12870;52.274;9.754;2022-07-29T03:04:23;16.00;99.90
24772;DHT22;12870;52.274;9.754;2022-07-29T03:06:50;16.00;99.90
24772;DHT22;12870;52.274;9.754;2022-07-29T03:09:17;16.00;99.90
24772;DHT22;12870;52.274;9.754;2022-07-29T03:11:44;16.00;99.90
24772;DHT22;12870;52.274;9.754;2022-07-29T03:14:10;16.00;99.90
24772;DHT22;12870;52.274;9.754;2022-07-29T03:16:37;16.00;99.90
24772;DHT22;12870;52.274;9.754;2022-07-29T03:19:03;16.00;99.90
24772;DHT22;12870;52.274;9.754;2022-07-29T03:21:30;16.00;99.90
24772;DHT22;12870;52.274;9.754;2022-07-29T03:23:55;16.00;99.90
24772;DHT22;12870;52.274;9.754;2022-07-29T03:26:21;16.00;99.90
24772;DHT22;12870;52.274;9.754;2022-07-29T03:28:47;16.00;99.90
24772;DHT22;12870;52.274;9.754;2022-07-29T03:31:12;16.00;99.90
24772;DHT22;12870;52.274;9.754;2022-07-29T03:33:38;16.00;99.90
24772;DHT22;12870;52.274;9.754;2022-07-29T03:36:04;16.00;99.90
24772;DHT22;12870;52.274;9.754;2022-07-29T03:38:31;16.00;99.90
24772;DHT22;12870;52.274;9.754;2022-07-29T03:41:02;16.00;99.90
24772;DHT22;12870;52.274;9.754;2022-07-29T03:43:31;16.00;99.90
24772;DHT22;12870;52.274;9.754;2022-07-29T03:46:00;16.00;99.90
24772;DHT22;12870;52.274;9.754;2022-07-29T03:48:26;16.00;99.90
24772;DHT22;12870;52.274;9.754;2022-07-29T03:50:55;15.90;99.90
24772;DHT22;12870;52.274;9.754;2022-07-29T03:53:21;15.90;99.90
24772;DHT22;12870;52.274;9.754;2022-07-29T03:55:53;16.00;99.90
24772;DHT22;12870;52.274;9.754;2022-07-29T03:58:20;16.00;99.90
24772;DHT22;12870;52.274;9.754;2022-07-29T04:00:46;16.00;99.90
24772;DHT22;12870;52.274;9.754;2022-07-29T04:03:12;16.00;99.90
24772;DHT22;12870;52.274;9.754;2022-07-29T04:05:38;16.00;99.90
24772;DHT22;12870;52.274;9.754;2022-07-29T04:08:04;16.00;99.90
24772;DHT22;12870;52.274;9.754;2022-07-29T04:10:30;16.10;99.90
24772;DHT22;12870;52.274;9.754;2022-07-29T04:12:56;16.10;99.90
24772;DHT22;12870;52.274;9.754;2022-07-29T04:15:22;16.10;99.90
24772;DHT22;12870;52.274;9.754;2022-07-29T04:17:47;16.10;99.90
24772;DHT22;12870;52.274;9.754;2022-07-29T04:20:13;16.10;99.90
24772;DHT22;12870;52.274;9.754;2022-07-29T04:22:40;16.10;99.90
24772;DHT22;12870;52.274;9.754;2022-07-29T04:25:06;16.20;99.90
24772;DHT22;12870;52.274;9.754;2022-07-29T04:27:31;16.20;99.90
24772;DHT22;12870;52.274;9.754;2022-07-29T04:29:57;16.20;99.90
24772;DHT22;12870;52.274;9.754;2022-07-29T04:32:24;16.20;99.90
24772;DHT22;12870;52.274;9.754;2022-07-29T04:34:50;16.20;99.90
24772;DHT22;12870;52.274;9.754;2022-07-29T04:37:15;16.30;99.90
24772;DHT22;12870;52.274;9.754;2022-07-29T04:39:41;16.30;99.90
24772;DHT22;12870;52.274;9.754;2022-07-29T04:42:06;16.30;99.90
24772;DHT22;12870;52.274;9.754;2022-07-29T04:44:32;16.30;99.90
24772;DHT22;12870;52.274;9.754;2022-07-29T04:46:58;16.30;99.90
24772;DHT22;12870;52.274;9.754;2022-07-29T04:49:24;16.30;99.90
24772;DHT22;12870;52.274;9.754;2022-07-29T04:51:49;16.40;99.90
24772;DHT22;12870;52.274;9.754;2022-07-29T04:54:15;16.40;99.90
24772;DHT22;12870;52.274;9.754;2022-07-29T04:56:41;16.40;99.90
24772;DHT22;12870;52.274;9.754;2022-07-29T04:59:07;16.50;99.90
24772;DHT22;12870;52.274;9.754;2022-07-29T05:01:33;16.50;99.90
24772;DHT22;12870;52.274;9.754;2022-07-29T05:03:59;16.60;99.90
24772;DHT22;12870;52.274;9.754;2022-07-29T05:06:24;16.60;99.90
24772;DHT22;12870;52.274;9.754;2022-07-29T05:08:50;16.70;99.90
24772;DHT22;12870;52.274;9.754;2022-07-29T05:11:15;16.70;99.90
24772;DHT22;12870;52.274;9.754;2022-07-29T05:13:41;16.80;99.90
24772;DHT22;12870;52.274;9.754;2022-07-29T05:16:08;16.90;99.90
24772;DHT22;12870;52.274;9.754;2022-07-29T05:18:33;16.90;99.90
24772;DHT22;12870;52.274;9.754;2022-07-29T05:20:59;16.90;99.90
24772;DHT22;12870;52.274;9.754;2022-07-29T05:23:25;17.00;99.90
24772;DHT22;12870;52.274;9.754;2022-07-29T05:25:51;17.10;99.90
24772;DHT22;12870;52.274;9.754;2022-07-29T05:28:16;17.10;99.90
24772;DHT22;12870;52.274;9.754;2022-07-29T05:30:42;17.10;99.90
24772;DHT22;12870;52.274;9.754;2022-07-29T05:33:10;17.10;99.90
24772;DHT22;12870;52.274;9.754;2022-07-29T05:35:36;17.20;99.90
24772;DHT22;12870;52.274;9.754;2022-07-29T05:38:03;17.20;99.90
24772;DHT22;12870;52.274;9.754;2022-07-29T05:40:29;17.20;99.90
24772;DHT22;12870;52.274;9.754;2022-07-29T05:42:55;17.30;99.90
24772;DHT22;12870;52.274;9.754;2022-07-29T05:45:21;17.30;99.90
24772;DHT22;12870;52.274;9.754;2022-07-29T05:47:47;17.30;99.90
24772;DHT22;12870;52.274;9.754;2022-07-29T05:50:12;17.30;99.90
24772;DHT22;12870;52.274;9.754;2022-07-29T05:52:38;17.40;99.90
24772;DHT22;12870;52.274;9.754;2022-07-29T05:55:04;17.30;99.90
24772;DHT22;12870;52.274;9.754;2022-07-29T05:57:31;17.40;99.90
24772;DHT22;12870;52.274;9.754;2022-07-29T05:59:57;17.40;99.90
24772;DHT22;12870;52.274;9.754;2022-07-29T06:02:23;17.50;99.90
24772;DHT22;12870;52.274;9.754;2022-07-29T06:04:49;17.50;99.90
24772;DHT22;12870;52.274;9.754;2022-07-29T06:07:15;17.50;99.90
24772;DHT22;12870;52.274;9.754;2022-07-29T06:09:41;17.50;99.90
24772;DHT22;12870;52.274;9.754;2022-07-29T06:12:07;17.60;99.90
24772;DHT22;12870;52.274;9.754;2022-07-29T06:14:33;17.70;99.90
24772;DHT22;12870;52.274;9.754;2022-07-29T06:16:59;17.90;99.90
24772;DHT22;12870;52.274;9.754;2022-07-29T06:19:25;18.10;99.90
24772;DHT22;12870;52.274;9.754;2022-07-29T06:21:51;18.30;99.90
24772;DHT22;12870;52.274;9.754;2022-07-29T06:24:16;18.40;99.90
24772;DHT22;12870;52.274;9.754;2022-07-29T06:26:43;18.70;99.90
24772;DHT22;12870;52.274;9.754;2022-07-29T06:29:09;18.80;99.90
24772;DHT22;12870;52.274;9.754;2022-07-29T06:31:38;19.00;99.90
24772;DHT22;12870;52.274;9.754;2022-07-29T06:34:04;19.20;99.90
24772;DHT22;12870;52.274;9.754;2022-07-29T06:36:30;19.20;99.90
24772;DHT22;12870;52.274;9.754;2022-07-29T06:38:56;19.20;99.90
24772;DHT22;12870;52.274;9.754;2022-07-29T06:41:21;19.30;99.90
24772;DHT22;12870;52.274;9.754;2022-07-29T06:43:48;19.30;99.90
24772;DHT22;12870;52.274;9.754;2022-07-29T06:46:16;19.30;99.90
24772;DHT22;12870;52.274;9.754;2022-07-29T06:48:43;19.40;99.90
24772;DHT22;12870;52.274;9.754;2022-07-29T06:51:10;19.60;99.90
24772;DHT22;12870;52.274;9.754;2022-07-29T06:53:37;19.60;99.90
24772;DHT22;12870;52.274;9.754;2022-07-29T06:56:04;19.70;99.90
24772;DHT22;12870;52.274;9.754;2022-07-29T06:58:31;19.70;99.90
24772;DHT22;12870;52.274;9.754;2022-07-29T07:00:58;19.70;99.90
24772;DHT22;12870;52.274;9.754;2022-07-29T07:03:24;19.70;99.90
24772;DHT22;12870;52.274;9.754;2022-07-29T07:05:52;19.80;99.90
24772;DHT22;12870;52.274;9.754;2022-07-29T07:08:18;19.80;99.90
24772;DHT22;12870;52.274;9.754;2022-07-29T07:10:45;19.80;99.90
24772;DHT22;12870;52.274;9.754;2022-07-29T07:13:11;19.90;99.90
24772;DHT22;12870;52.274;9.754;2022-07-29T07:15:37;20.00;99.90
24772;DHT22;12870;52.274;9.754;2022-07-29T07:18:04;20.10;99.90
24772;DHT22;12870;52.274;9.754;2022-07-29T07:20:31;20.20;99.90
24772;DHT22;12870;52.274;9.754;2022-07-29T07:22:57;20.20;99.90
24772;DHT22;12870;52.274;9.754;2022-07-29T07:25:23;20.20;99.90
24772;DHT22;12870;52.274;9.754;2022-07-29T07:27:49;20.30;99.90
24772;DHT22;12870;52.274;9.754;2022-07-29T07:30:15;20.30;99.90
24772;DHT22;12870;52.274;9.754;2022-07-29T07:32:40;20.20;99.90
24772;DHT22;12870;52.274;9.754;2022-07-29T07:35:08;20.20;99.90
24772;DHT22;12870;52.274;9.754;2022-07-29T07:37:34;20.40;99.90
24772;DHT22;12870;52.274;9.754;2022-07-29T07:40:00;20.40;99.90
24772;DHT22;12870;52.274;9.754;2022-07-29T07:42:26;20.30;99.90
24772;DHT22;12870;52.274;9.754;2022-07-29T07:44:52;20.30;99.90
24772;DHT22;12870;52.274;9.754;2022-07-29T07:47:18;20.20;99.90
24772;DHT22;12870;52.274;9.754;2022-07-29T07:49:51;20.30;99.90
24772;DHT22;12870;52.274;9.754;2022-07-29T07:52:18;20.30;99.90
24772;DHT22;12870;52.274;9.754;2022-07-29T07:54:45;20.30;99.90
24772;DHT22;12870;52.274;9.754;2022-07-29T07:57:11;20.20;99.90
24772;DHT22;12870;52.274;9.754;2022-07-29T07:59:38;20.20;99.90
24772;DHT22;12870;52.274;9.754;2022-07-29T08:02:04;20.20;99.90
24772;DHT22;12870;52.274;9.754;2022-07-29T08:04:30;20.30;99.90
24772;DHT22;12870;52.274;9.754;2022-07-29T08:06:57;20.30;99.90
24772;DHT22;12870;52.274;9.754;2022-07-29T08:09:23;20.40;99.90
24772;DHT22;12870;52.274;9.754;2022-07-29T08:11:49;20.50;99.90
24772;DHT22;12870;52.274;9.754;2022-07-29T08:14:14;20.50;99.90
24772;DHT22;12870;52.274;9.754;2022-07-29T08:16:40;20.50;99.90
24772;DHT22;12870;52.274;9.754;2022-07-29T08:19:07;20.50;99.90
24772;DHT22;12870;52.274;9.754;2022-07-29T08:21:33;20.50;99.90
24772;DHT22;12870;52.274;9.754;2022-07-29T08:23:58;20.50;99.90
24772;DHT22;12870;52.274;9.754;2022-07-29T08:26:43;20.60;99.90
24772;DHT22;12870;52.274;9.754;2022-07-29T08:29:09;20.60;99.90
24772;DHT22;12870;52.274;9.754;2022-07-29T08:31:37;20.60;99.90
24772;DHT22;12870;52.274;9.754;2022-07-29T08:34:03;20.60;99.90
24772;DHT22;12870;52.274;9.754;2022-07-29T08:36:29;20.60;99.90
24772;DHT22;12870;52.274;9.754;2022-07-29T08:38:55;20.60;99.90
24772;DHT22;12870;52.274;9.754;2022-07-29T08:41:21;20.70;99.90
24772;DHT22;12870;52.274;9.754;2022-07-29T08:43:48;20.70;99.90
24772;DHT22;12870;52.274;9.754;2022-07-29T08:46:15;20.60;99.90
24772;DHT22;12870;52.274;9.754;2022-07-29T08:48:41;20.70;99.90
24772;DHT22;12870;52.274;9.754;2022-07-29T08:51:07;20.90;99.90
24772;DHT22;12870;52.274;9.754;2022-07-29T08:53:34;21.00;99.90
24772;DHT22;12870;52.274;9.754;2022-07-29T08:56:00;21.10;99.90
24772;DHT22;12870;52.274;9.754;2022-07-29T08:58:31;21.20;99.90
24772;DHT22;12870;52.274;9.754;2022-07-29T09:00:57;21.50;99.90
24772;DHT22;12870;52.274;9.754;2022-07-29T09:03:30;21.50;99.90
24772;DHT22;12870;52.274;9.754;2022-07-29T09:06:01;21.60;99.90
24772;DHT22;12870;52.274;9.754;2022-07-29T09:08:27;21.80;99.90
24772;DHT22;12870;52.274;9.754;2022-07-29T09:10:54;21.90;99.90
24772;DHT22;12870;52.274;9.754;2022-07-29T09:13:22;21.90;99.90
24772;DHT22;12870;52.274;9.754;2022-07-29T09:15:48;21.90;99.90
24772;DHT22;12870;52.274;9.754;2022-07-29T09:18:37;22.00;99.90
24772;DHT22;12870;52.274;9.754;2022-07-29T09:21:05;21.90;99.90
24772;DHT22;12870;52.274;9.754;2022-07-29T09:24:09;21.90;99.90
24772;DHT22;12870;52.274;9.754;2022-07-29T09:26:38;22.10;99.90
24772;DHT22;12870;52.274;9.754;2022-07-29T09:29:11;22.10;99.90
24772;DHT22;12870;52.274;9.754;2022-07-29T09:31:40;22.10;99.90
24772;DHT22;12870;52.274;9.754;2022-07-29T09:34:07;22.10;99.90
24772;DHT22;12870;52.274;9.754;2022-07-29T09:36:44;22.10;99.90
24772;DHT22;12870;52.274;9.754;2022-07-29T09:39:12;22.20;99.90
24772;DHT22;12870;52.274;9.754;2022-07-29T09:41:49;22.30;99.90
24772;DHT22;12870;52.274;9.754;2022-07-29T09:44:18;22.30;99.90
24772;DHT22;12870;52.274;9.754;2022-07-29T09:46:59;22.30;99.90
24772;DHT22;12870;52.274;9.754;2022-07-29T09:49:49;22.50;99.90
24772;DHT22;12870;52.274;9.754;2022-07-29T09:52:15;22.60;99.90
24772;DHT22;12870;52.274;9.754;2022-07-29T09:54:41;22.70;99.90
24772;DHT22;12870;52.274;9.754;2022-07-29T09:57:09;22.80;99.90
24772;DHT22;12870;52.274;9.754;2022-07-29T10:02:41;23.00;99.90
24772;DHT22;12870;52.274;9.754;2022-07-29T10:05:24;23.20;99.90
24772;DHT22;12870;52.274;9.754;2022-07-29T10:07:53;23.40;99.90
24772;DHT22;12870;52.274;9.754;2022-07-29T10:10:26;23.60;99.90
24772;DHT22;12870;52.274;9.754;2022-07-29T10:12:55;23.90;99.90
24772;DHT22;12870;52.274;9.754;2022-07-29T10:15:23;24.10;99.90
24772;DHT22;12870;52.274;9.754;2022-07-29T10:17:50;24.20;99.90
24772;DHT22;12870;52.274;9.754;2022-07-29T10:20:17;24.20;99.90
24772;DHT22;12870;52.274;9.754;2022-07-29T10:22:43;24.20;99.90
24772;DHT22;12870;52.274;9.754;2022-07-29T10:25:09;24.30;99.90
24772;DHT22;12870;52.274;9.754;2022-07-29T10:27:36;24.30;99.90
24772;DHT22;12870;52.274;9.754;2022-07-29T10:30:03;24.40;99.90
24772;DHT22;12870;52.274;9.754;2022-07-29T10:38:44;24.30;99.90
24772;DHT22;12870;52.274;9.754;2022-07-29T10:41:23;24.20;99.90
24772;DHT22;12870;52.274;9.754;2022-07-29T10:44:06;24.20;99.90
24772;DHT22;12870;52.274;9.754;2022-07-29T10:46:38;24.10;99.90
24772;DHT22;12870;52.274;9.754;2022-07-29T10:49:21;24.10;99.90
24772;DHT22;12870;52.274;9.754;2022-07-29T11:05:06;24.30;99.90
24772;DHT22;12870;52.274;9.754;2022-07-29T11:07:32;24.30;99.90
24772;DHT22;12870;52.274;9.754;2022-07-29T11:15:17;24.40;99.90
24772;DHT22;12870;52.274;9.754;2022-07-29T11:20:42;24.30;99.90
24772;DHT22;12870;52.274;9.754;2022-07-29T11:23:30;24.40;99.90
24772;DHT22;12870;52.274;9.754;2022-07-29T11:29:11;24.40;99.90
24772;DHT22;12870;52.274;9.754;2022-07-29T11:31:45;24.50;99.90
24772;DHT22;12870;52.274;9.754;2022-07-29T11:34:28;24.50;99.90
24772;DHT22;12870;52.274;9.754;2022-07-29T11:39:39;24.70;99.90
24772;DHT22;12870;52.274;9.754;2022-07-29T11:45:05;24.80;99.90
24772;DHT22;12870;52.274;9.754;2022-07-29T11:47:33;25.00;99.90
24772;DHT22;12870;52.274;9.754;2022-07-29T11:50:00;24.90;99.90
24772;DHT22;12870;52.274;9.754;2022-07-29T11:52:41;25.00;99.90
24772;DHT22;12870;52.274;9.754;2022-07-29T11:55:14;25.30;99.90
24772;DHT22;12870;52.274;9.754;2022-07-29T11:57:49;25.50;99.90
24772;DHT22;12870;52.274;9.754;2022-07-29T12:00:29;25.60;99.90
24772;DHT22;12870;52.274;9.754;2022-07-29T12:02:56;25.80;99.90
24772;DHT22;12870;52.274;9.754;2022-07-29T12:05:40;26.10;99.90
24772;DHT22;12870;52.274;9.754;2022-07-29T12:08:08;26.20;99.90
24772;DHT22;12870;52.274;9.754;2022-07-29T12:10:34;26.50;99.90
24772;DHT22;12870;52.274;9.754;2022-07-29T12:13:00;26.80;99.90
24772;DHT22;12870;52.274;9.754;2022-07-29T12:15:26;27.10;99.90
24772;DHT22;12870;52.274;9.754;2022-07-29T12:17:52;27.50;99.90
24772;DHT22;12870;52.274;9.754;2022-07-29T12:20:29;27.80;99.90
24772;DHT22;12870;52.274;9.754;2022-07-29T12:22:56;28.40;99.90
24772;DHT22;12870;52.274;9.754;2022-07-29T12:25:23;28.80;99.90
24772;DHT22;12870;52.274;9.754;2022-07-29T12:27:59;29.10;99.90
24772;DHT22;12870;52.274;9.754;2022-07-29T12:30:42;29.10;99.90
24772;DHT22;12870;52.274;9.754;2022-07-29T12:33:28;28.90;99.60
24772;DHT22;12870;52.274;9.754;2022-07-29T12:35:58;29.00;99.00
24772;DHT22;12870;52.274;9.754;2022-07-29T12:38:25;29.00;99.20
24772;DHT22;12870;52.274;9.754;2022-07-29T12:40:51;28.80;99.70
24772;DHT22;12870;52.274;9.754;2022-07-29T12:43:19;28.80;98.20
24772;DHT22;12870;52.274;9.754;2022-07-29T12:45:50;28.80;98.70
24772;DHT22;12870;52.274;9.754;2022-07-29T12:48:17;29.00;99.30
24772;DHT22;12870;52.274;9.754;2022-07-29T12:50:59;29.00;97.40
24772;DHT22;12870;52.274;9.754;2022-07-29T12:53:27;29.30;97.90
24772;DHT22;12870;52.274;9.754;2022-07-29T12:55:55;29.90;97.10
24772;DHT22;12870;52.274;9.754;2022-07-29T12:58:37;30.10;95.90
24772;DHT22;12870;52.274;9.754;2022-07-29T13:03:58;30.60;92.60
24772;DHT22;12870;52.274;9.754;2022-07-29T13:06:30;30.70;92.00
24772;DHT22;12870;52.274;9.754;2022-07-29T13:09:04;30.90;90.80
24772;DHT22;12870;52.274;9.754;2022-07-29T13:11:33;31.10;90.00
24772;DHT22;12870;52.274;9.754;2022-07-29T13:13:59;31.30;87.80
24772;DHT22;12870;52.274;9.754;2022-07-29T13:16:25;31.20;85.20
24772;DHT22;12870;52.274;9.754;2022-07-29T13:19:07;31.20;83.50
24772;DHT22;12870;52.274;9.754;2022-07-29T13:21:33;31.30;84.50
24772;DHT22;12870;52.274;9.754;2022-07-29T13:23:59;31.70;85.60
24772;DHT22;12870;52.274;9.754;2022-07-29T13:26:25;32.00;83.10
24772;DHT22;12870;52.274;9.754;2022-07-29T13:28:50;32.10;79.00
24772;DHT22;12870;52.274;9.754;2022-07-29T13:31:16;32.10;76.50
24772;DHT22;12870;52.274;9.754;2022-07-29T13:33:42;32.20;76.30
24772;DHT22;12870;52.274;9.754;2022-07-29T13:36:07;32.40;77.10
24772;DHT22;12870;52.274;9.754;2022-07-29T13:38:33;32.70;76.20
24772;DHT22;12870;52.274;9.754;2022-07-29T13:40:59;33.20;73.50
24772;DHT22;12870;52.274;9.754;2022-07-29T13:43:26;33.40;72.10
24772;DHT22;12870;52.274;9.754;2022-07-29T13:45:51;33.40;70.50
24772;DHT22;12870;52.274;9.754;2022-07-29T13:48:17;33.10;69.00
24772;DHT22;12870;52.274;9.754;2022-07-29T13:50:43;33.00;68.20
24772;DHT22;12870;52.274;9.754;2022-07-29T13:53:09;33.40;67.80
24772;DHT22;12870;52.274;9.754;2022-07-29T13:55:35;33.00;65.30
24772;DHT22;12870;52.274;9.754;2022-07-29T13:58:01;32.50;65.00
24772;DHT22;12870;52.274;9.754;2022-07-29T14:00:26;32.40;65.50
24772;DHT22;12870;52.274;9.754;2022-07-29T14:02:52;32.40;65.60
24772;DHT22;12870;52.274;9.754;2022-07-29T14:05:18;32.70;65.60
24772;DHT22;12870;52.274;9.754;2022-07-29T14:07:44;33.00;65.60
24772;DHT22;12870;52.274;9.754;2022-07-29T14:10:09;33.10;64.10
24772;DHT22;12870;52.274;9.754;2022-07-29T14:12:35;33.20;64.50
24772;DHT22;12870;52.274;9.754;2022-07-29T14:15:01;33.20;62.10
24772;DHT22;12870;52.274;9.754;2022-07-29T14:17:27;33.50;64.50
24772;DHT22;12870;52.274;9.754;2022-07-29T14:19:52;33.70;62.80
24772;DHT22;12870;52.274;9.754;2022-07-29T14:22:18;33.70;62.30
24772;DHT22;12870;52.274;9.754;2022-07-29T14:24:45;33.80;61.00
24772;DHT22;12870;52.274;9.754;2022-07-29T14:27:11;34.10;62.10
24772;DHT22;12870;52.274;9.754;2022-07-29T14:29:37;34.10;60.70
24772;DHT22;12870;52.274;9.754;2022-07-29T14:32:03;34.10;60.60
24772;DHT22;12870;52.274;9.754;2022-07-29T14:34:28;34.00;59.40
24772;DHT22;12870;52.274;9.754;2022-07-29T14:36:54;33.60;58.70
24772;DHT22;12870;52.274;9.754;2022-07-29T14:39:22;33.30;60.10
24772;DHT22;12870;52.274;9.754;2022-07-29T14:41:51;33.00;59.50
24772;DHT22;12870;52.274;9.754;2022-07-29T14:44:17;32.80;59.70
24772;DHT22;12870;52.274;9.754;2022-07-29T14:46:43;32.80;59.90
24772;DHT22;12870;52.274;9.754;2022-07-29T14:49:09;32.90;58.80
24772;DHT22;12870;52.274;9.754;2022-07-29T14:51:35;32.80;58.70
24772;DHT22;12870;52.274;9.754;2022-07-29T14:54:01;32.60;58.60
24772;DHT22;12870;52.274;9.754;2022-07-29T14:56:27;32.30;58.00
24772;DHT22;12870;52.274;9.754;2022-07-29T14:58:55;32.20;58.10
24772;DHT22;12870;52.274;9.754;2022-07-29T15:01:21;31.90;57.30
24772;DHT22;12870;52.274;9.754;2022-07-29T15:03:47;31.60;58.20
24772;DHT22;12870;52.274;9.754;2022-07-29T15:06:12;31.40;58.00
24772;DHT22;12870;52.274;9.754;2022-07-29T15:08:38;31.40;58.30
24772;DHT22;12870;52.274;9.754;2022-07-29T15:11:04;31.40;58.10
24772;DHT22;12870;52.274;9.754;2022-07-29T15:13:29;31.30;57.70
24772;DHT22;12870;52.274;9.754;2022-07-29T15:15:55;31.30;57.70
24772;DHT22;12870;52.274;9.754;2022-07-29T15:18:21;31.10;57.50
24772;DHT22;12870;52.274;9.754;2022-07-29T15:20:46;31.10;57.30
24772;DHT22;12870;52.274;9.754;2022-07-29T15:23:12;31.00;57.30
24772;DHT22;12870;52.274;9.754;2022-07-29T15:25:38;30.90;57.40
24772;DHT22;12870;52.274;9.754;2022-07-29T15:28:05;30.90;57.20
24772;DHT22;12870;52.274;9.754;2022-07-29T15:30:34;30.70;56.90
24772;DHT22;12870;52.274;9.754;2022-07-29T15:33:02;30.70;57.20
24772;DHT22;12870;52.274;9.754;2022-07-29T15:35:28;30.70;57.80
24772;DHT22;12870;52.274;9.754;2022-07-29T15:37:54;30.50;57.30
24772;DHT22;12870;52.274;9.754;2022-07-29T15:40:19;30.40;56.90
24772;DHT22;12870;52.274;9.754;2022-07-29T15:42:45;30.20;58.10
24772;DHT22;12870;52.274;9.754;2022-07-29T15:45:11;30.30;57.00
24772;DHT22;12870;52.274;9.754;2022-07-29T15:47:36;30.30;57.30
24772;DHT22;12870;52.274;9.754;2022-07-29T15:50:02;30.40;56.60
24772;DHT22;12870;52.274;9.754;2022-07-29T15:52:28;30.60;57.40
24772;DHT22;12870;52.274;9.754;2022-07-29T15:54:55;30.90;56.80
24772;DHT22;12870;52.274;9.754;2022-07-29T15:57:21;31.10;56.90
24772;DHT22;12870;52.274;9.754;2022-07-29T15:59:47;31.20;55.70
24772;DHT22;12870;52.274;9.754;2022-07-29T16:02:12;31.20;55.50
24772;DHT22;12870;52.274;9.754;2022-07-29T16:04:38;30.90;55.60
24772;DHT22;12870;52.274;9.754;2022-07-29T16:07:04;30.80;55.50
24772;DHT22;12870;52.274;9.754;2022-07-29T16:09:30;30.60;55.20
24772;DHT22;12870;52.274;9.754;2022-07-29T16:11:55;30.40;55.70
24772;DHT22;12870;52.274;9.754;2022-07-29T16:14:21;30.40;55.50
24772;DHT22;12870;52.274;9.754;2022-07-29T16:16:47;30.50;55.80
24772;DHT22;12870;52.274;9.754;2022-07-29T16:19:13;30.70;55.80
24772;DHT22;12870;52.274;9.754;2022-07-29T16:21:39;30.90;56.50
24772;DHT22;12870;52.274;9.754;2022-07-29T16:24:06;30.70;53.90
24772;DHT22;12870;52.274;9.754;2022-07-29T16:26:32;30.40;54.10
24772;DHT22;12870;52.274;9.754;2022-07-29T16:28:58;30.10;54.50
24772;DHT22;12870;52.274;9.754;2022-07-29T16:31:25;29.70;54.10